Time;durP1;ratioP1;P1;durP2;ratioP2;P2;SDS_P1;SDS_P2;PMS_P1;PMS_P2;Temp;Humidity;BMP_temperature;BMP_pressure;BME280_temperature;BME280_humidity;BME280_pressure;Samples;Min_cycle;Max_cycle;Signal;HPM_P1;HPM_P2
2023/04/09 00:01:07;;;;;;;0.10;0.10;;;9.60;76.60;;;;;;5022010;28;20043;-74
2023/04/09 00:03:33;;;;;;;1.13;0.38;;;9.60;76.50;;;;;;5021123;28;20061;-73
2023/04/09 00:05:59;;;;;;;0.00;0.00;;;9.50;76.90;;;;;;5022455;28;20037;-73
2023/04/09 00:08:25;;;;;;;0.00;0.00;;;9.40;77.10;;;;;;5022199;28;20033;-73
2023/04/09 00:10:52;;;;;;;0.47;0.47;;;9.50;76.90;;;;;;5021878;28;20029;-74
2023/04/09 00:13:18;;;;;;;0.77;0.77;;;9.30;77.70;;;;;;5022106;28;20204;-74
2023/04/09 00:15:44;;;;;;;0.17;0.17;;;9.20;77.90;;;;;;5022301;28;20040;-73
2023/04/09 00:18:10;;;;;;;0.55;0.55;;;9.30;77.80;;;;;;5025110;28;20107;-74
2023/04/09 00:20:36;;;;;;;0.10;0.10;;;9.20;78.00;;;;;;5021280;28;20033;-74
2023/04/09 00:23:02;;;;;;;0.00;0.00;;;9.20;78.30;;;;;;5022348;28;20030;-73
2023/04/09 00:25:27;;;;;;;0.25;0.25;;;9.20;78.00;;;;;;5022396;28;20137;-73
2023/04/09 00:27:54;;;;;;;0.13;0.13;;;9.20;78.30;;;;;;5022410;28;20037;-74
2023/04/09 00:30:20;;;;;;;0.10;0.10;;;9.10;78.50;;;;;;5026063;28;20053;-74
2023/04/09 00:32:46;;;;;;;0.10;0.10;;;9.20;78.50;;;;;;5021662;28;20980;-73
2023/04/09 00:35:11;;;;;;;0.00;0.00;;;9.10;78.80;;;;;;5021863;28;20080;-73
2023/04/09 00:37:37;;;;;;;0.20;0.20;;;9.00;78.90;;;;;;5022461;28;20635;-73
2023/04/09 00:40:04;;;;;;;0.20;0.20;;;9.10;78.70;;;;;;5029635;28;20831;-73
2023/04/09 00:42:34;;;;;;;0.30;0.30;;;9.00;79.30;;;;;;5022719;28;20033;-73
2023/04/09 00:45:00;;;;;;;0.08;0.08;;;9.00;78.80;;;;;;5022183;28;20033;-73
2023/04/09 00:47:29;;;;;;;0.10;0.10;;;9.00;79.30;;;;;;5020359;28;20102;-73
2023/04/09 00:49:56;;;;;;;0.40;0.40;;;8.90;79.20;;;;;;5022355;28;20561;-73
2023/04/09 00:52:23;;;;;;;0.10;0.10;;;8.80;79.90;;;;;;5022437;28;20317;-73
2023/04/09 00:54:50;;;;;;;0.00;0.00;;;8.90;79.60;;;;;;5022341;28;20034;-73
2023/04/09 00:57:16;;;;;;;0.10;0.10;;;8.80;79.80;;;;;;5021764;28;20033;-74
2023/04/09 00:59:45;;;;;;;0.10;0.10;;;8.80;80.00;;;;;;5021908;28;20515;-74
2023/04/09 01:02:11;;;;;;;0.08;0.08;;;8.80;80.00;;;;;;5021617;28;20101;-74
2023/04/09 01:04:40;;;;;;;0.10;0.10;;;8.70;80.30;;;;;;5021276;28;20102;-74
2023/04/09 01:07:27;;;;;;;0.00;0.00;;;8.70;80.50;;;;;;5021510;28;20349;-74
2023/04/09 01:10:17;;;;;;;0.10;0.10;;;8.60;80.60;;;;;;5016994;28;20038;-74
2023/04/09 01:13:15;;;;;;;0.45;0.38;;;8.60;80.50;;;;;;5024749;28;20021;-74
2023/04/09 01:15:50;;;;;;;0.10;0.10;;;8.50;80.90;;;;;;5020214;28;20496;-73
2023/04/09 01:18:34;;;;;;;0.20;0.20;;;8.40;81.40;;;;;;5027265;28;20025;-73
2023/04/09 01:21:08;;;;;;;0.20;0.20;;;8.40;81.40;;;;;;5025313;28;20037;-73
2023/04/09 01:23:57;;;;;;;0.77;0.77;;;8.30;81.80;;;;;;5025164;28;20113;-73
2023/04/09 01:26:37;;;;;;;0.10;0.10;;;8.40;81.70;;;;;;5025141;28;20083;-74
2023/04/09 01:29:05;;;;;;;1.00;1.00;;;8.40;81.50;;;;;;5027174;28;20029;-74
2023/04/09 01:31:36;;;;;;;0.22;0.22;;;8.30;81.50;;;;;;5024327;28;20586;-74
2023/04/09 01:34:03;;;;;;;0.10;0.10;;;8.30;81.90;;;;;;5024546;28;20066;-73
2023/04/09 01:36:31;;;;;;;0.10;0.10;;;8.30;81.90;;;;;;5024433;28;20022;-73
2023/04/09 01:38:57;;;;;;;0.05;0.05;;;8.30;82.00;;;;;;5024589;28;20051;-74
2023/04/09 01:41:24;;;;;;;0.10;0.10;;;8.30;82.00;;;;;;5018146;28;20559;-73
2023/04/09 01:43:51;;;;;;;0.10;0.10;;;8.20;82.50;;;;;;5024167;28;20060;-73
2023/04/09 01:46:18;;;;;;;26.88;0.90;;;8.10;82.50;;;;;;5024603;28;20068;-74
2023/04/09 01:48:45;;;;;;;0.10;0.10;;;8.00;83.10;;;;;;5024818;28;20083;-73
2023/04/09 01:51:13;;;;;;;0.10;0.10;;;8.10;83.00;;;;;;5024695;28;20049;-73
2023/04/09 01:53:39;;;;;;;0.30;0.30;;;8.00;83.10;;;;;;5024949;28;20048;-73
2023/04/09 01:56:06;;;;;;;0.60;0.60;;;7.90;83.60;;;;;;5024678;28;20025;-73
2023/04/09 01:58:33;;;;;;;0.00;0.00;;;7.90;83.80;;;;;;5024287;28;20116;-73
2023/04/09 02:01:25;;;;;;;0.00;0.00;;;7.90;83.90;;;;;;5024387;28;20026;-73
2023/04/09 02:03:55;;;;;;;0.47;0.40;;;7.80;84.40;;;;;;5023875;28;20064;-73
2023/04/09 02:06:38;;;;;;;0.00;0.00;;;7.90;84.10;;;;;;5024926;28;20026;-73
2023/04/09 02:09:07;;;;;;;0.30;0.30;;;8.00;83.70;;;;;;5018972;28;20116;-73
2023/04/09 02:11:37;;;;;;;1.10;0.55;;;7.90;84.30;;;;;;5024070;28;20029;-74
2023/04/09 02:14:03;;;;;;;0.20;0.20;;;7.90;84.20;;;;;;5019894;28;20073;-74
2023/04/09 02:16:31;;;;;;;0.08;0.08;;;7.80;84.70;;;;;;5024102;28;20026;-74
2023/04/09 02:18:57;;;;;;;0.08;0.08;;;7.80;84.50;;;;;;5023832;28;20037;-73
2023/04/09 02:21:23;;;;;;;0.43;0.43;;;7.80;84.50;;;;;;5024448;28;20055;-74
2023/04/09 02:23:49;;;;;;;0.00;0.00;;;7.70;84.60;;;;;;5024720;28;20038;-74
2023/04/09 02:26:15;;;;;;;0.00;0.00;;;7.70;84.60;;;;;;5024825;28;20252;-73
2023/04/09 02:28:41;;;;;;;0.52;0.50;;;7.70;84.80;;;;;;5026878;28;20033;-73
2023/04/09 02:31:06;;;;;;;0.10;0.10;;;7.60;85.40;;;;;;5024612;28;20041;-73
2023/04/09 02:33:32;;;;;;;0.10;0.10;;;7.60;85.60;;;;;;5024048;28;20092;-73
2023/04/09 02:35:58;;;;;;;0.00;0.00;;;7.40;86.20;;;;;;5024258;28;20109;-74
2023/04/09 02:38:24;;;;;;;0.00;0.00;;;7.50;86.20;;;;;;5024675;28;20108;-74
2023/04/09 02:40:49;;;;;;;0.10;0.10;;;7.50;86.40;;;;;;5031731;28;20021;-73
2023/04/09 02:43:15;;;;;;;0.10;0.10;;;7.40;86.30;;;;;;5024082;28;20157;-73
2023/04/09 02:45:41;;;;;;;0.00;0.00;;;7.50;86.10;;;;;;5023485;28;20052;-73
2023/04/09 02:48:06;;;;;;;0.13;0.13;;;7.50;86.10;;;;;;5019703;28;20030;-74
2023/04/09 02:50:32;;;;;;;0.00;0.00;;;7.40;86.30;;;;;;5016818;28;20029;-73
2023/04/09 02:52:58;;;;;;;0.00;0.00;;;7.30;86.70;;;;;;5020362;28;20036;-74
2023/04/09 02:55:23;;;;;;;0.20;0.20;;;7.30;86.90;;;;;;5024122;28;20029;-74
2023/04/09 02:57:49;;;;;;;1.15;0.43;;;7.40;86.60;;;;;;5023196;28;20078;-74
2023/04/09 03:00:15;;;;;;;0.00;0.00;;;7.40;86.50;;;;;;5023711;28;20136;-74
2023/04/09 03:02:40;;;;;;;0.10;0.10;;;7.30;86.60;;;;;;5023860;28;20027;-73
2023/04/09 03:05:06;;;;;;;0.20;0.20;;;7.30;86.90;;;;;;5023639;28;20519;-73
2023/04/09 03:07:32;;;;;;;0.60;0.60;;;7.20;87.20;;;;;;5024299;28;20321;-74
2023/04/09 03:09:58;;;;;;;0.00;0.00;;;7.20;87.30;;;;;;5023288;28;20079;-74
2023/04/09 03:12:23;;;;;;;0.00;0.00;;;7.20;87.50;;;;;;5023548;28;20527;-73
2023/04/09 03:14:49;;;;;;;0.20;0.20;;;7.20;87.70;;;;;;5023210;28;20035;-74
2023/04/09 03:17:15;;;;;;;0.10;0.10;;;7.00;88.10;;;;;;5023287;28;20034;-73
2023/04/09 03:19:40;;;;;;;0.17;0.17;;;7.10;88.30;;;;;;5023104;28;20036;-74
2023/04/09 03:22:06;;;;;;;0.10;0.10;;;7.00;88.60;;;;;;5023595;28;20101;-73
2023/04/09 03:24:32;;;;;;;0.00;0.00;;;7.10;88.50;;;;;;5023659;28;20721;-73
2023/04/09 03:26:58;;;;;;;0.00;0.00;;;7.00;88.80;;;;;;5023575;28;20104;-74
2023/04/09 03:29:24;;;;;;;0.10;0.10;;;7.00;88.90;;;;;;5025531;28;20035;-74
2023/04/09 03:31:50;;;;;;;0.00;0.00;;;7.00;88.60;;;;;;5022774;28;20846;-74
2023/04/09 03:34:16;;;;;;;0.10;0.10;;;6.90;89.00;;;;;;5023637;28;20037;-73
2023/04/09 03:36:41;;;;;;;0.13;0.13;;;6.90;89.20;;;;;;5023038;28;20022;-73
2023/04/09 03:39:07;;;;;;;0.25;0.25;;;6.90;89.30;;;;;;5024892;28;20045;-74
2023/04/09 03:41:32;;;;;;;0.00;0.00;;;6.90;89.30;;;;;;5028134;28;20036;-74
2023/04/09 03:43:58;;;;;;;0.00;0.00;;;6.90;89.00;;;;;;5022630;28;20033;-73
2023/04/09 03:46:24;;;;;;;0.90;0.65;;;6.90;89.10;;;;;;5022810;28;20021;-74
2023/04/09 03:48:50;;;;;;;0.30;0.30;;;6.90;89.00;;;;;;5023208;28;20109;-73
2023/04/09 03:51:16;;;;;;;0.00;0.00;;;6.90;88.90;;;;;;5022790;28;20398;-73
2023/04/09 03:53:42;;;;;;;0.00;0.00;;;6.90;89.40;;;;;;5023350;28;20025;-74
2023/04/09 03:56:09;;;;;;;0.08;0.08;;;6.90;89.30;;;;;;5023190;28;20110;-74
2023/04/09 03:58:34;;;;;;;0.00;0.00;;;6.90;89.20;;;;;;5023122;28;20037;-74
2023/04/09 04:01:00;;;;;;;0.20;0.20;;;6.90;90.00;;;;;;5022910;28;20405;-73
2023/04/09 04:03:27;;;;;;;0.00;0.00;;;6.90;89.40;;;;;;5020894;28;20501;-73
2023/04/09 04:05:52;;;;;;;0.13;0.13;;;6.80;89.90;;;;;;5018344;28;20029;-73
2023/04/09 04:08:18;;;;;;;0.35;0.35;;;6.80;90.00;;;;;;5023198;28;20087;-73
2023/04/09 04:10:44;;;;;;;0.10;0.10;;;6.70;90.20;;;;;;5022680;28;20686;-73
2023/04/09 04:13:09;;;;;;;0.30;0.30;;;6.70;90.40;;;;;;5022861;28;20029;-74
2023/04/09 04:15:40;;;;;;;0.50;0.50;;;6.80;90.10;;;;;;5023201;28;20112;-73
2023/04/09 04:18:05;;;;;;;4.38;0.45;;;6.80;90.00;;;;;;5022609;28;20445;-73
2023/04/09 04:20:35;;;;;;;0.65;0.50;;;6.80;90.20;;;;;;5022685;28;20026;-73
2023/04/09 04:23:01;;;;;;;0.17;0.17;;;6.90;90.00;;;;;;5022612;28;20113;-73
2023/04/09 04:25:26;;;;;;;0.00;0.00;;;6.90;90.10;;;;;;5022726;28;20040;-73
2023/04/09 04:27:53;;;;;;;0.50;0.50;;;6.80;90.40;;;;;;5021871;28;20033;-73
2023/04/09 04:30:22;;;;;;;0.15;0.15;;;6.80;90.30;;;;;;5024229;28;20029;-73
2023/04/09 04:32:48;;;;;;;0.00;0.00;;;6.80;90.30;;;;;;5022252;28;20038;-73
2023/04/09 04:35:14;;;;;;;0.00;0.00;;;6.80;90.30;;;;;;5022146;28;20626;-74
2023/04/09 04:37:40;;;;;;;0.00;0.00;;;6.90;90.20;;;;;;5022393;28;20022;-74
2023/04/09 04:40:07;;;;;;;0.00;0.00;;;6.80;90.20;;;;;;5029493;28;20029;-73
2023/04/09 04:42:33;;;;;;;0.00;0.00;;;6.90;90.10;;;;;;5021494;28;20049;-73
2023/04/09 04:44:59;;;;;;;0.90;0.73;;;6.80;90.20;;;;;;5022564;28;20073;-73
2023/04/09 04:47:24;;;;;;;0.10;0.10;;;6.80;90.20;;;;;;5025419;28;20433;-74
2023/04/09 04:49:50;;;;;;;0.05;0.05;;;6.90;90.10;;;;;;5026124;28;20029;-73
2023/04/09 04:52:16;;;;;;;0.10;0.10;;;6.80;90.20;;;;;;5025930;28;20400;-73
2023/04/09 04:54:42;;;;;;;0.00;0.00;;;6.80;90.20;;;;;;5026067;28;20060;-73
2023/04/09 04:57:08;;;;;;;0.00;0.00;;;6.80;90.10;;;;;;5026245;28;20064;-74
2023/04/09 04:59:37;;;;;;;0.20;0.20;;;6.80;90.10;;;;;;5025784;28;20125;-74
2023/04/09 05:02:03;;;;;;;0.00;0.00;;;6.80;90.10;;;;;;5025845;28;20048;-74
2023/04/09 05:04:29;;;;;;;0.10;0.10;;;6.70;90.20;;;;;;5025792;28;20556;-74
2023/04/09 05:06:55;;;;;;;0.13;0.13;;;6.80;90.10;;;;;;5025760;28;21019;-73
2023/04/09 05:09:20;;;;;;;0.00;0.00;;;6.70;90.40;;;;;;5026124;28;20505;-74
2023/04/09 05:11:46;;;;;;;0.00;0.00;;;6.60;90.40;;;;;;5025676;28;20033;-73
2023/04/09 05:14:12;;;;;;;0.00;0.00;;;6.70;90.50;;;;;;5025732;28;20046;-73
2023/04/09 05:16:38;;;;;;;6.65;0.70;;;6.60;90.70;;;;;;5025553;28;20392;-73
2023/04/09 05:19:03;;;;;;;0.22;0.22;;;6.60;90.50;;;;;;5025802;28;20030;-74
2023/04/09 05:21:30;;;;;;;0.00;0.00;;;6.70;90.40;;;;;;5025938;28;20025;-73
2023/04/09 05:23:56;;;;;;;0.00;0.00;;;6.60;90.60;;;;;;5026223;28;20040;-73
2023/04/09 05:26:21;;;;;;;0.22;0.22;;;6.60;90.60;;;;;;5025844;28;20470;-73
2023/04/09 05:28:47;;;;;;;0.00;0.00;;;6.50;90.80;;;;;;5028971;28;20061;-73
2023/04/09 05:31:14;;;;;;;0.38;0.30;;;6.60;90.80;;;;;;5025084;28;20847;-74
2023/04/09 05:33:40;;;;;;;0.60;0.60;;;6.60;90.70;;;;;;5025745;28;20075;-73
2023/04/09 05:36:06;;;;;;;0.40;0.40;;;7.10;88.80;;;;;;5015416;28;20030;-74
2023/04/09 05:38:32;;;;;;;0.15;0.15;;;7.00;88.50;;;;;;5025024;28;20116;-74
2023/04/09 05:40:58;;;;;;;0.00;0.00;;;6.80;89.80;;;;;;5032573;28;20029;-74
2023/04/09 05:43:24;;;;;;;0.00;0.00;;;6.80;90.10;;;;;;5024888;28;20314;-73
2023/04/09 05:45:49;;;;;;;0.10;0.10;;;6.70;90.20;;;;;;5019034;28;20205;-73
2023/04/09 05:48:17;;;;;;;0.00;0.00;;;6.70;90.30;;;;;;5024952;28;20034;-74
2023/04/09 05:50:51;;;;;;;0.45;0.40;;;6.80;89.70;;;;;;5022840;28;20028;-72
2023/04/09 05:53:18;;;;;;;0.20;0.20;;;6.80;90.10;;;;;;5023035;28;20109;-73
2023/04/09 05:55:44;;;;;;;0.10;0.10;;;6.70;90.10;;;;;;5024841;28;20025;-74
2023/04/09 05:58:10;;;;;;;0.03;0.03;;;6.80;90.00;;;;;;5024716;28;20037;-73
2023/04/09 06:00:36;;;;;;;0.40;0.40;;;6.80;89.60;;;;;;5025417;28;20068;-74
2023/04/09 06:03:01;;;;;;;0.10;0.10;;;6.80;89.80;;;;;;5024782;28;20101;-73
2023/04/09 06:05:27;;;;;;;0.00;0.00;;;6.90;89.50;;;;;;5025114;28;20041;-73
2023/04/09 06:07:53;;;;;;;0.00;0.00;;;7.00;89.30;;;;;;5025156;28;20103;-73
2023/04/09 06:10:18;;;;;;;0.15;0.15;;;7.10;88.90;;;;;;5024704;28;20056;-74
2023/04/09 06:12:44;;;;;;;0.10;0.10;;;7.00;89.30;;;;;;5024002;28;20029;-74
2023/04/09 06:15:10;;;;;;;0.08;0.08;;;7.10;89.10;;;;;;5029551;28;20036;-73
2023/04/09 06:17:36;;;;;;;0.10;0.10;;;7.00;89.10;;;;;;5024517;28;20063;-73
2023/04/09 06:20:02;;;;;;;0.95;0.95;;;7.00;89.30;;;;;;5024748;28;20040;-73
2023/04/09 06:22:28;;;;;;;0.40;0.30;;;7.10;88.60;;;;;;5024574;28;20132;-73
2023/04/09 06:24:53;;;;;;;0.00;0.00;;;7.10;89.20;;;;;;5024200;28;20298;-75
2023/04/09 06:27:20;;;;;;;2.30;0.68;;;7.10;89.10;;;;;;5023655;28;20027;-73
2023/04/09 06:29:46;;;;;;;0.30;0.15;;;7.10;89.20;;;;;;5026543;28;20018;-73
2023/04/09 06:32:12;;;;;;;0.03;0.03;;;7.10;89.20;;;;;;5023976;28;20855;-73
2023/04/09 06:34:37;;;;;;;0.25;0.25;;;7.20;88.90;;;;;;5024472;28;20033;-73
2023/04/09 06:37:03;;;;;;;0.40;0.40;;;7.20;88.50;;;;;;5024404;28;20033;-74
2023/04/09 06:39:29;;;;;;;0.05;0.05;;;7.30;89.00;;;;;;5027333;28;20029;-73
2023/04/09 06:41:55;;;;;;;0.10;0.10;;;7.40;87.90;;;;;;5026170;28;20064;-73
2023/04/09 06:44:20;;;;;;;0.00;0.00;;;7.50;87.10;;;;;;5022807;28;20041;-74
2023/04/09 06:46:46;;;;;;;0.00;0.00;;;7.50;87.00;;;;;;5023962;28;20025;-73
2023/04/09 06:49:12;;;;;;;0.00;0.00;;;7.60;87.30;;;;;;5024508;28;20493;-73
2023/04/09 06:51:37;;;;;;;0.45;0.45;;;7.80;86.80;;;;;;5024124;28;20040;-74
2023/04/09 06:54:03;;;;;;;0.08;0.08;;;7.90;86.60;;;;;;5024820;28;20532;-74
2023/04/09 06:56:29;;;;;;;0.30;0.30;;;8.10;86.10;;;;;;5023896;28;20022;-75
2023/04/09 06:58:54;;;;;;;1.95;0.50;;;8.30;85.20;;;;;;5024077;28;20025;-73
2023/04/09 07:01:20;;;;;;;0.15;0.15;;;8.50;84.00;;;;;;5023717;28;20025;-73
2023/04/09 07:03:46;;;;;;;0.10;0.10;;;8.50;83.90;;;;;;5023357;28;20077;-73
2023/04/09 07:06:11;;;;;;;0.00;0.00;;;8.50;84.10;;;;;;5023901;28;20040;-74
2023/04/09 07:08:37;;;;;;;0.10;0.10;;;8.50;83.30;;;;;;5022698;28;20489;-74
2023/04/09 07:11:03;;;;;;;0.22;0.22;;;8.90;82.50;;;;;;5022804;28;20033;-74
2023/04/09 07:13:28;;;;;;;1.65;0.57;;;9.00;81.30;;;;;;5021019;28;20033;-74
2023/04/09 07:15:54;;;;;;;0.00;0.00;;;9.20;80.80;;;;;;5023476;28;20033;-73
2023/04/09 07:18:20;;;;;;;0.10;0.10;;;9.90;79.30;;;;;;5023352;28;20030;-73
2023/04/09 07:20:45;;;;;;;0.15;0.15;;;10.00;79.30;;;;;;5023399;28;20034;-74
2023/04/09 07:23:11;;;;;;;0.20;0.17;;;10.60;77.50;;;;;;5023381;28;20030;-73
2023/04/09 07:25:37;;;;;;;0.20;0.20;;;10.40;77.20;;;;;;5023533;28;20036;-73
2023/04/09 07:28:03;;;;;;;0.15;0.15;;;11.70;74.20;;;;;;5022926;28;20037;-73
2023/04/09 07:30:29;;;;;;;0.10;0.10;;;12.00;73.00;;;;;;5026726;28;20029;-74
2023/04/09 07:32:55;;;;;;;0.30;0.30;;;11.30;73.00;;;;;;5023312;28;20021;-73
2023/04/09 07:35:20;;;;;;;0.20;0.20;;;11.50;71.90;;;;;;5022891;28;20037;-73
2023/04/09 07:37:46;;;;;;;0.10;0.10;;;11.70;72.30;;;;;;5023010;28;20025;-74
2023/04/09 07:40:12;;;;;;;0.30;0.22;;;12.30;71.10;;;;;;5029588;28;20080;-74
2023/04/09 07:42:38;;;;;;;0.30;0.30;;;13.50;68.50;;;;;;5018938;28;20022;-74
2023/04/09 07:45:05;;;;;;;0.10;0.10;;;14.70;66.10;;;;;;5022525;28;20135;-75
2023/04/09 07:47:31;;;;;;;;;;;15.10;62.80;;;;;;5023243;28;20025;-74
2023/04/09 07:49:57;;;;;;;0.00;0.00;;;15.00;62.70;;;;;;5023158;28;20719;-74
2023/04/09 07:52:22;;;;;;;0.10;0.10;;;15.50;61.60;;;;;;5022596;28;20148;-74
2023/04/09 07:54:48;;;;;;;0.43;0.43;;;15.00;61.20;;;;;;5022905;28;20025;-74
2023/04/09 07:57:14;;;;;;;0.00;0.00;;;14.60;62.20;;;;;;5022341;28;20049;-75
2023/04/09 07:59:39;;;;;;;0.20;0.20;;;14.00;64.70;;;;;;5022087;28;20033;-74
2023/04/09 08:02:06;;;;;;;0.73;0.63;;;14.10;63.40;;;;;;5022772;28;20038;-74
2023/04/09 08:04:31;;;;;;;0.10;0.10;;;15.30;62.80;;;;;;5022391;28;20452;-74
2023/04/09 08:06:58;;;;;;;0.30;0.30;;;15.40;61.00;;;;;;5021511;28;20040;-75
2023/04/09 08:09:24;;;;;;;0.50;0.50;;;16.00;61.00;;;;;;5022770;28;20029;-75
2023/04/09 08:11:50;;;;;;;0.10;0.10;;;15.90;59.60;;;;;;5022316;28;20037;-74
2023/04/09 08:14:16;;;;;;;0.37;0.20;;;15.90;59.40;;;;;;5021906;28;20060;-74
2023/04/09 08:16:44;;;;;;;0.10;0.10;;;15.80;59.10;;;;;;5022793;28;20330;-74
2023/04/09 08:19:10;;;;;;;0.00;0.00;;;16.10;58.70;;;;;;5023079;28;20026;-74
2023/04/09 08:21:42;;;;;;;0.32;0.32;;;17.10;56.20;;;;;;5025999;28;20722;-75
2023/04/09 08:24:10;;;;;;;0.10;0.10;;;17.70;54.20;;;;;;5026996;28;20044;-75
2023/04/09 08:26:36;;;;;;;7.22;1.23;;;17.00;55.30;;;;;;5029047;28;20512;-74
2023/04/09 08:29:02;;;;;;;0.30;0.30;;;17.50;54.60;;;;;;5027974;28;20244;-74
2023/04/09 08:31:28;;;;;;;0.20;0.20;;;18.20;53.50;;;;;;5026274;28;20537;-74
2023/04/09 08:33:53;;;;;;;0.00;0.00;;;18.40;53.10;;;;;;5026692;28;20034;-75
2023/04/09 08:36:20;;;;;;;0.23;0.23;;;17.10;55.10;;;;;;5027382;28;20030;-75
2023/04/09 08:38:46;;;;;;;;;;;17.50;54.80;;;;;;5026898;28;20488;-74
2023/04/09 08:41:27;;;;;;;0.05;0.05;;;16.70;55.80;;;;;;5033239;28;19916;-74
2023/04/09 08:43:54;;;;;;;0.00;0.00;;;16.10;57.70;;;;;;5025732;28;20621;-74
2023/04/09 08:46:20;;;;;;;0.10;0.10;;;17.50;55.90;;;;;;5026060;28;20021;-74
2023/04/09 08:48:47;;;;;;;0.13;0.13;;;18.60;55.00;;;;;;5024903;28;20443;-74
2023/04/09 08:51:18;;;;;;;0.10;0.10;;;19.40;53.90;;;;;;5058087;28;20017;-75
2023/04/09 08:53:46;;;;;;;0.10;0.10;;;19.10;53.40;;;;;;5026207;28;20033;-75
2023/04/09 08:56:13;;;;;;;0.00;0.00;;;18.90;54.80;;;;;;5027246;28;20100;-74
2023/04/09 08:58:42;;;;;;;0.10;0.10;;;19.00;52.80;;;;;;5025489;28;20033;-74
2023/04/09 09:01:37;;;;;;;0.20;0.20;;;19.00;52.80;;;;;;5025879;28;20516;-75
2023/04/09 09:04:05;;;;;;;0.10;0.10;;;19.40;54.40;;;;;;5019817;28;20092;-74
2023/04/09 09:06:36;;;;;;;0.05;0.05;;;19.20;52.10;;;;;;5025345;28;20126;-74
2023/04/09 09:09:13;;;;;;;0.03;0.03;;;19.80;51.70;;;;;;5026455;28;20061;-75
2023/04/09 09:11:47;;;;;;;0.25;0.17;;;20.40;51.50;;;;;;5025408;28;20084;-75
2023/04/09 09:14:17;;;;;;;0.13;0.13;;;21.00;49.90;;;;;;5025739;28;20500;-74
2023/04/09 09:17:05;;;;;;;0.70;0.70;;;21.40;47.60;;;;;;5025311;28;20029;-75
2023/04/09 09:19:32;;;;;;;0.00;0.00;;;22.30;49.80;;;;;;5025484;28;20405;-75
2023/04/09 09:22:03;;;;;;;2.10;0.57;;;22.10;47.60;;;;;;5025507;28;20028;-75
2023/04/09 09:24:29;;;;;;;0.10;0.10;;;21.80;47.00;;;;;;5024275;28;20076;-75
2023/04/09 09:26:56;;;;;;;;;;;22.00;46.90;;;;;;5024769;28;20026;-74
2023/04/09 09:29:21;;;;;;;0.00;0.00;;;20.50;48.20;;;;;;5027941;28;19909;-74
2023/04/09 09:31:50;;;;;;;0.00;0.00;;;20.70;48.60;;;;;;5024273;28;20332;-74
2023/04/09 09:34:16;;;;;;;0.05;0.05;;;21.20;48.00;;;;;;5025809;28;20033;-75
2023/04/09 09:36:43;;;;;;;0.10;0.10;;;22.20;46.90;;;;;;5025185;28;20029;-75
2023/04/09 09:39:11;;;;;;;0.00;0.00;;;22.90;44.00;;;;;;5025784;28;20034;-75
2023/04/09 09:41:40;;;;;;;0.22;0.22;;;23.30;44.30;;;;;;5028998;28;20029;-75
2023/04/09 09:44:07;;;;;;;0.10;0.10;;;23.20;43.80;;;;;;5024702;28;20082;-75
2023/04/09 09:46:34;;;;;;;;;;;23.90;43.10;;;;;;5025371;28;20553;-75
2023/04/09 09:49:00;;;;;;;0.00;0.00;;;24.00;41.10;;;;;;5025593;28;19970;-76
2023/04/09 09:51:26;;;;;;;0.00;0.00;;;24.10;41.80;;;;;;5025187;28;20128;-75
2023/04/09 09:53:54;;;;;;;;;;;24.10;41.20;;;;;;5025976;28;20026;-74
2023/04/09 09:56:24;;;;;;;0.00;0.00;;;24.00;41.50;;;;;;5025743;28;19916;-75
2023/04/09 09:59:02;;;;;;;0.43;0.43;;;22.30;44.20;;;;;;5024126;28;20026;-74
2023/04/09 10:01:28;;;;;;;0.00;0.00;;;23.90;44.10;;;;;;5024563;28;20030;-75
2023/04/09 10:03:58;;;;;;;0.00;0.00;;;25.20;40.10;;;;;;5022999;28;20049;-75
2023/04/09 10:06:26;;;;;;;0.03;0.03;;;26.40;41.10;;;;;;5024587;28;20049;-75
2023/04/09 10:08:55;;;;;;;0.15;0.15;;;26.40;40.10;;;;;;5023151;28;20067;-75
2023/04/09 10:11:22;;;;;;;0.52;0.30;;;26.10;44.10;;;;;;5024781;28;20029;-75
2023/04/09 10:14:00;;;;;;;0.10;0.10;;;25.40;42.60;;;;;;5020446;28;20251;-75
2023/04/09 10:16:27;;;;;;;0.30;0.30;;;23.70;42.60;;;;;;5023859;28;20497;-76
2023/04/09 10:18:54;;;;;;;;;;;20.90;42.70;;;;;;5024824;28;20432;-75
2023/04/09 10:21:40;;;;;;;0.10;0.10;;;20.50;42.60;;;;;;5024373;28;19939;-76
2023/04/09 10:24:08;;;;;;;0.10;0.10;;;20.30;46.80;;;;;;5022291;28;20021;-75
2023/04/09 10:26:35;;;;;;;0.03;0.03;;;19.90;43.50;;;;;;5024386;28;20473;-75
2023/04/09 10:29:07;;;;;;;0.00;0.00;;;19.50;43.40;;;;;;5026606;28;20024;-76
2023/04/09 10:31:53;;;;;;;0.00;0.00;;;20.00;42.70;;;;;;5024413;28;20362;-76
2023/04/09 10:34:25;;;;;;;0.00;0.00;;;19.50;42.60;;;;;;5023732;28;20087;-76
2023/04/09 10:36:55;;;;;;;0.00;0.00;;;19.50;44.70;;;;;;5023546;28;20033;-75
2023/04/09 10:39:30;;;;;;;0.00;0.00;;;19.20;42.20;;;;;;5027594;28;20025;-75
2023/04/09 10:41:58;;;;;;;0.00;0.00;;;19.60;42.30;;;;;;5026127;28;20568;-74
2023/04/09 10:44:30;;;;;;;0.00;0.00;;;19.60;46.60;;;;;;5022875;28;20414;-75
2023/04/09 10:46:57;;;;;;;0.00;0.00;;;19.20;41.80;;;;;;5023653;28;20405;-75
2023/04/09 10:49:25;;;;;;;0.10;0.10;;;19.00;42.90;;;;;;5023984;28;20068;-74
2023/04/09 10:52:01;;;;;;;0.10;0.10;;;19.10;43.30;;;;;;5023335;28;20029;-75
2023/04/09 10:54:33;;;;;;;0.10;0.10;;;18.90;42.60;;;;;;5019221;28;20080;-75
2023/04/09 10:57:21;;;;;;;0.00;0.00;;;19.70;43.60;;;;;;5023663;28;20032;-76
2023/04/09 10:59:48;;;;;;;1.20;0.73;;;19.10;43.80;;;;;;5023659;28;20029;-75
2023/04/09 11:02:37;;;;;;;1.02;0.45;;;19.30;46.50;;;;;;5021360;28;20026;-75
2023/04/09 11:05:18;;;;;;;0.00;0.00;;;19.10;45.20;;;;;;5023612;28;20119;-75
2023/04/09 11:07:56;;;;;;;0.00;0.00;;;19.30;44.40;;;;;;5023908;28;20033;-75
2023/04/09 11:10:21;;;;;;;0.30;0.30;;;19.50;44.00;;;;;;5023469;28;20032;-75
2023/04/09 11:12:48;;;;;;;0.07;0.07;;;19.00;45.00;;;;;;5021811;28;20025;-75
2023/04/09 11:15:18;;;;;;;0.00;0.00;;;19.30;46.50;;;;;;5023625;28;20033;-74
2023/04/09 11:17:44;;;;;;;0.00;0.00;;;19.50;46.60;;;;;;5023391;28;20025;-75
2023/04/09 11:20:11;;;;;;;;;;;19.40;46.60;;;;;;5023870;28;20640;-75
2023/04/09 11:22:37;;;;;;;1.83;0.30;;;19.50;45.90;;;;;;5023469;28;20028;-75
2023/04/09 11:25:03;;;;;;;0.00;0.00;;;19.30;46.30;;;;;;5023235;28;20033;-74
2023/04/09 11:27:29;;;;;;;0.00;0.00;;;18.90;44.90;;;;;;5022984;28;20072;-76
2023/04/09 11:29:57;;;;;;;0.20;0.20;;;18.40;46.90;;;;;;5026786;28;20121;-74
2023/04/09 11:32:29;;;;;;;0.20;0.20;;;18.30;47.40;;;;;;5023424;28;20082;-75
2023/04/09 11:34:56;;;;;;;0.00;0.00;;;18.00;46.50;;;;;;5023145;28;20051;-74
2023/04/09 11:37:21;;;;;;;;;;;18.10;47.80;;;;;;5022959;28;20025;-75
2023/04/09 11:39:48;;;;;;;0.00;0.00;;;18.30;51.20;;;;;;5029847;28;20463;-75
2023/04/09 11:42:16;;;;;;;0.10;0.10;;;18.30;49.10;;;;;;5022506;28;20032;-75
2023/04/09 11:44:44;;;;;;;0.90;0.52;;;18.50;52.60;;;;;;5022162;28;20520;-74
2023/04/09 11:47:12;;;;;;;0.30;0.30;;;18.80;53.40;;;;;;5022570;28;20779;-75
2023/04/09 11:49:37;;;;;;;0.10;0.10;;;18.80;51.80;;;;;;5022805;28;20056;-75
2023/04/09 11:52:04;;;;;;;0.23;0.20;;;18.90;52.70;;;;;;5022276;28;20520;-75
2023/04/09 11:54:33;;;;;;;0.00;0.00;;;19.00;53.60;;;;;;5023899;28;20033;-76
2023/04/09 11:57:00;;;;;;;0.00;0.00;;;19.20;55.20;;;;;;5022286;28;20493;-75
2023/04/09 11:59:26;;;;;;;0.00;0.00;;;19.20;58.70;;;;;;5022164;28;20453;-75
2023/04/09 12:01:52;;;;;;;0.00;0.00;;;19.20;59.70;;;;;;5022503;28;20103;-74
2023/04/09 12:04:21;;;;;;;0.17;0.10;;;19.10;57.90;;;;;;5022740;28;20069;-75
2023/04/09 12:06:48;;;;;;;0.08;0.08;;;18.80;54.20;;;;;;5022489;28;20172;-75
2023/04/09 12:09:15;;;;;;;0.10;0.10;;;18.60;54.00;;;;;;5023252;28;20026;-75
2023/04/09 12:11:43;;;;;;;0.05;0.05;;;18.50;54.10;;;;;;5022524;28;20032;-76
2023/04/09 12:14:16;;;;;;;0.10;0.10;;;18.40;52.60;;;;;;5054371;28;20141;-75
2023/04/09 12:16:43;;;;;;;0.10;0.10;;;18.30;50.70;;;;;;5020811;28;20102;-75
2023/04/09 12:19:10;;;;;;;0.10;0.10;;;18.30;52.40;;;;;;5054710;28;20025;-75
2023/04/09 12:21:48;;;;;;;0.22;0.20;;;18.30;48.30;;;;;;5022398;28;20060;-74
2023/04/09 12:24:18;;;;;;;0.00;0.00;;;18.20;46.50;;;;;;5025052;28;20039;-75
2023/04/09 12:26:47;;;;;;;0.00;0.00;;;18.20;43.60;;;;;;5022753;28;20135;-75
2023/04/09 12:29:17;;;;;;;0.05;0.05;;;18.10;43.60;;;;;;5025611;28;20079;-75
2023/04/09 12:31:44;;;;;;;0.00;0.00;;;17.90;40.60;;;;;;5022820;28;20033;-75
2023/04/09 12:34:10;;;;;;;0.30;0.30;;;18.00;39.70;;;;;;5022626;28;20501;-75
2023/04/09 12:36:42;;;;;;;0.10;0.10;;;17.90;43.20;;;;;;5022798;28;20045;-75
2023/04/09 12:39:08;;;;;;;0.00;0.00;;;17.80;44.50;;;;;;5024754;28;20038;-75
2023/04/09 12:41:34;;;;;;;0.00;0.00;;;18.00;45.80;;;;;;5028223;28;20038;-75
2023/04/09 12:44:00;;;;;;;0.00;0.00;;;17.90;45.20;;;;;;5022480;28;20030;-75
2023/04/09 12:46:27;;;;;;;0.07;0.07;;;17.70;44.00;;;;;;5022507;28;20037;-75
2023/04/09 12:48:53;;;;;;;0.00;0.00;;;17.70;43.50;;;;;;5022376;28;20022;-75
2023/04/09 12:51:18;;;;;;;0.03;0.03;;;17.80;45.30;;;;;;5022272;28;20033;-75
2023/04/09 12:53:45;;;;;;;0.20;0.20;;;17.70;48.30;;;;;;5022658;28;20436;-75
2023/04/09 12:56:11;;;;;;;;;;;17.80;51.30;;;;;;5028615;28;20473;-75
2023/04/09 12:58:37;;;;;;;0.00;0.00;;;17.70;47.20;;;;;;5021181;28;19912;-75